sensor_id;sensor_type;location;lat;lon;timestamp;temperature;humidity
14140;DHT22;7150;53.514;9.988;2024-02-26T00:01:27;8.40;99.90
14140;DHT22;7150;53.514;9.988;2024-02-26T00:03:53;8.30;99.90
14140;DHT22;7150;53.514;9.988;2024-02-26T00:06:20;8.30;99.90
14140;DHT22;7150;53.514;9.988;2024-02-26T00:08:46;8.20;99.90
14140;DHT22;7150;53.514;9.988;2024-02-26T00:11:11;8.10;99.90
14140;DHT22;7150;53.514;9.988;2024-02-26T00:13:37;8.10;99.90
14140;DHT22;7150;53.514;9.988;2024-02-26T00:16:03;8.10;99.90
14140;DHT22;7150;53.514;9.988;2024-02-26T00:18:29;8.00;99.90
14140;DHT22;7150;53.514;9.988;2024-02-26T00:20:55;8.00;99.90
14140;DHT22;7150;53.514;9.988;2024-02-26T00:23:20;8.00;99.90
14140;DHT22;7150;53.514;9.988;2024-02-26T00:25:46;8.10;99.90
14140;DHT22;7150;53.514;9.988;2024-02-26T00:28:11;8.10;99.90
14140;DHT22;7150;53.514;9.988;2024-02-26T00:30:38;8.10;99.90
14140;DHT22;7150;53.514;9.988;2024-02-26T00:33:04;8.10;99.90
14140;DHT22;7150;53.514;9.988;2024-02-26T00:35:29;8.10;99.90
14140;DHT22;7150;53.514;9.988;2024-02-26T00:37:55;8.10;99.90
14140;DHT22;7150;53.514;9.988;2024-02-26T00:40:20;8.10;99.90
14140;DHT22;7150;53.514;9.988;2024-02-26T00:42:46;8.10;99.90
14140;DHT22;7150;53.514;9.988;2024-02-26T00:45:13;8.00;99.90
14140;DHT22;7150;53.514;9.988;2024-02-26T00:47:38;8.00;99.90
14140;DHT22;7150;53.514;9.988;2024-02-26T00:50:06;7.90;99.90
14140;DHT22;7150;53.514;9.988;2024-02-26T00:52:32;8.00;99.90
14140;DHT22;7150;53.514;9.988;2024-02-26T00:54:57;8.00;99.90
14140;DHT22;7150;53.514;9.988;2024-02-26T00:57:23;8.00;99.90
14140;DHT22;7150;53.514;9.988;2024-02-26T00:59:48;8.00;99.90
14140;DHT22;7150;53.514;9.988;2024-02-26T01:02:16;8.00;99.90
14140;DHT22;7150;53.514;9.988;2024-02-26T01:04:41;8.00;99.90
14140;DHT22;7150;53.514;9.988;2024-02-26T01:07:06;8.00;99.90
14140;DHT22;7150;53.514;9.988;2024-02-26T01:09:32;7.90;99.90
14140;DHT22;7150;53.514;9.988;2024-02-26T01:11:57;7.90;99.90
14140;DHT22;7150;53.514;9.988;2024-02-26T01:14:23;7.90;99.90
14140;DHT22;7150;53.514;9.988;2024-02-26T01:16:49;7.90;99.90
14140;DHT22;7150;53.514;9.988;2024-02-26T01:19:14;8.00;99.90
14140;DHT22;7150;53.514;9.988;2024-02-26T01:21:40;8.00;99.90
14140;DHT22;7150;53.514;9.988;2024-02-26T01:24:06;7.90;99.90
14140;DHT22;7150;53.514;9.988;2024-02-26T01:26:32;7.90;99.90
14140;DHT22;7150;53.514;9.988;2024-02-26T01:28:58;7.90;99.90
14140;DHT22;7150;53.514;9.988;2024-02-26T01:31:23;7.90;99.90
14140;DHT22;7150;53.514;9.988;2024-02-26T01:33:49;7.90;99.90
14140;DHT22;7150;53.514;9.988;2024-02-26T01:36:14;7.90;99.90
14140;DHT22;7150;53.514;9.988;2024-02-26T01:38:39;7.90;99.90
14140;DHT22;7150;53.514;9.988;2024-02-26T01:41:05;7.80;99.90
14140;DHT22;7150;53.514;9.988;2024-02-26T01:43:31;7.80;99.90
14140;DHT22;7150;53.514;9.988;2024-02-26T01:45:57;7.90;99.90
14140;DHT22;7150;53.514;9.988;2024-02-26T01:48:23;7.90;99.90
14140;DHT22;7150;53.514;9.988;2024-02-26T01:50:49;7.90;99.90
14140;DHT22;7150;53.514;9.988;2024-02-26T01:53:16;7.90;99.90
14140;DHT22;7150;53.514;9.988;2024-02-26T01:55:42;7.80;99.90
14140;DHT22;7150;53.514;9.988;2024-02-26T01:58:08;7.80;99.90
14140;DHT22;7150;53.514;9.988;2024-02-26T02:00:34;7.80;99.90
14140;DHT22;7150;53.514;9.988;2024-02-26T02:03:01;7.80;99.90
14140;DHT22;7150;53.514;9.988;2024-02-26T02:05:28;7.80;99.90
14140;DHT22;7150;53.514;9.988;2024-02-26T02:07:54;7.70;99.90
14140;DHT22;7150;53.514;9.988;2024-02-26T02:10:20;7.80;99.90
14140;DHT22;7150;53.514;9.988;2024-02-26T02:12:50;7.70;99.90
14140;DHT22;7150;53.514;9.988;2024-02-26T02:15:16;7.70;99.90
14140;DHT22;7150;53.514;9.988;2024-02-26T02:17:41;7.70;99.90
14140;DHT22;7150;53.514;9.988;2024-02-26T02:20:15;7.70;99.90
14140;DHT22;7150;53.514;9.988;2024-02-26T02:22:42;7.70;99.90
14140;DHT22;7150;53.514;9.988;2024-02-26T02:25:07;7.70;99.90
14140;DHT22;7150;53.514;9.988;2024-02-26T02:27:33;7.70;99.90
14140;DHT22;7150;53.514;9.988;2024-02-26T02:29:59;7.70;99.90
14140;DHT22;7150;53.514;9.988;2024-02-26T02:32:25;7.60;99.90
14140;DHT22;7150;53.514;9.988;2024-02-26T02:34:51;7.60;99.90
14140;DHT22;7150;53.514;9.988;2024-02-26T02:37:17;7.60;99.90
14140;DHT22;7150;53.514;9.988;2024-02-26T02:39:43;7.60;99.90
14140;DHT22;7150;53.514;9.988;2024-02-26T02:42:09;7.60;99.90
14140;DHT22;7150;53.514;9.988;2024-02-26T02:44:35;7.60;99.90
14140;DHT22;7150;53.514;9.988;2024-02-26T02:47:01;7.60;99.90
14140;DHT22;7150;53.514;9.988;2024-02-26T02:49:26;7.60;99.90
14140;DHT22;7150;53.514;9.988;2024-02-26T02:51:52;7.60;99.90
14140;DHT22;7150;53.514;9.988;2024-02-26T02:54:19;7.60;99.90
14140;DHT22;7150;53.514;9.988;2024-02-26T02:56:45;7.50;99.90
14140;DHT22;7150;53.514;9.988;2024-02-26T02:59:10;7.50;99.90
14140;DHT22;7150;53.514;9.988;2024-02-26T03:01:36;7.50;99.90
14140;DHT22;7150;53.514;9.988;2024-02-26T03:04:01;7.50;99.90
14140;DHT22;7150;53.514;9.988;2024-02-26T03:06:27;7.50;99.90
14140;DHT22;7150;53.514;9.988;2024-02-26T03:08:54;7.50;99.90
14140;DHT22;7150;53.514;9.988;2024-02-26T03:11:20;7.40;99.90
14140;DHT22;7150;53.514;9.988;2024-02-26T03:13:45;7.40;99.90
14140;DHT22;7150;53.514;9.988;2024-02-26T03:16:11;7.50;99.90
14140;DHT22;7150;53.514;9.988;2024-02-26T03:18:39;7.50;99.90
14140;DHT22;7150;53.514;9.988;2024-02-26T03:21:05;7.50;99.90
14140;DHT22;7150;53.514;9.988;2024-02-26T03:23:30;7.50;99.90
14140;DHT22;7150;53.514;9.988;2024-02-26T03:25:57;7.50;99.90
14140;DHT22;7150;53.514;9.988;2024-02-26T03:28:23;7.50;99.90
14140;DHT22;7150;53.514;9.988;2024-02-26T03:30:48;7.50;99.90
14140;DHT22;7150;53.514;9.988;2024-02-26T03:33:14;7.50;99.90
14140;DHT22;7150;53.514;9.988;2024-02-26T03:35:39;7.50;99.90
14140;DHT22;7150;53.514;9.988;2024-02-26T03:38:05;7.50;99.90
14140;DHT22;7150;53.514;9.988;2024-02-26T03:40:30;7.50;99.90
14140;DHT22;7150;53.514;9.988;2024-02-26T03:42:56;7.60;99.90
14140;DHT22;7150;53.514;9.988;2024-02-26T03:45:22;7.50;99.90
14140;DHT22;7150;53.514;9.988;2024-02-26T03:47:48;7.60;99.90
14140;DHT22;7150;53.514;9.988;2024-02-26T03:50:13;7.60;99.90
14140;DHT22;7150;53.514;9.988;2024-02-26T03:52:39;7.60;99.90
14140;DHT22;7150;53.514;9.988;2024-02-26T03:55:05;7.50;99.90
14140;DHT22;7150;53.514;9.988;2024-02-26T03:57:30;7.60;99.90
14140;DHT22;7150;53.514;9.988;2024-02-26T03:59:56;7.50;99.90
14140;DHT22;7150;53.514;9.988;2024-02-26T04:02:21;7.50;99.90
14140;DHT22;7150;53.514;9.988;2024-02-26T04:04:48;7.50;99.90
14140;DHT22;7150;53.514;9.988;2024-02-26T04:07:14;7.50;99.90
14140;DHT22;7150;53.514;9.988;2024-02-26T04:09:39;7.60;99.90
14140;DHT22;7150;53.514;9.988;2024-02-26T04:12:05;7.60;99.90
14140;DHT22;7150;53.514;9.988;2024-02-26T04:14:31;7.60;99.90
14140;DHT22;7150;53.514;9.988;2024-02-26T04:16:56;7.60;99.90
14140;DHT22;7150;53.514;9.988;2024-02-26T04:19:22;7.60;99.90
14140;DHT22;7150;53.514;9.988;2024-02-26T04:21:47;7.60;99.90
14140;DHT22;7150;53.514;9.988;2024-02-26T04:24:13;7.50;99.90
14140;DHT22;7150;53.514;9.988;2024-02-26T04:26:38;7.50;99.90
14140;DHT22;7150;53.514;9.988;2024-02-26T04:29:04;7.50;99.90
14140;DHT22;7150;53.514;9.988;2024-02-26T04:31:29;7.50;99.90
14140;DHT22;7150;53.514;9.988;2024-02-26T04:33:58;7.40;99.90
14140;DHT22;7150;53.514;9.988;2024-02-26T04:36:23;7.40;99.90
14140;DHT22;7150;53.514;9.988;2024-02-26T04:38:51;7.40;99.90
14140;DHT22;7150;53.514;9.988;2024-02-26T04:41:17;7.40;99.90
14140;DHT22;7150;53.514;9.988;2024-02-26T04:43:42;7.30;99.90
14140;DHT22;7150;53.514;9.988;2024-02-26T04:46:08;7.30;99.90
14140;DHT22;7150;53.514;9.988;2024-02-26T04:48:34;7.30;99.90
14140;DHT22;7150;53.514;9.988;2024-02-26T04:51:00;7.30;99.90
14140;DHT22;7150;53.514;9.988;2024-02-26T04:53:26;7.30;99.90
14140;DHT22;7150;53.514;9.988;2024-02-26T04:55:52;7.30;99.90
14140;DHT22;7150;53.514;9.988;2024-02-26T04:58:17;7.30;99.90
14140;DHT22;7150;53.514;9.988;2024-02-26T05:00:43;7.30;99.90
14140;DHT22;7150;53.514;9.988;2024-02-26T05:03:08;7.30;99.90
14140;DHT22;7150;53.514;9.988;2024-02-26T05:05:38;7.30;99.90
14140;DHT22;7150;53.514;9.988;2024-02-26T05:08:04;7.20;99.90
14140;DHT22;7150;53.514;9.988;2024-02-26T05:10:29;7.20;99.90
14140;DHT22;7150;53.514;9.988;2024-02-26T05:12:55;7.20;99.90
14140;DHT22;7150;53.514;9.988;2024-02-26T05:15:20;7.10;99.90
14140;DHT22;7150;53.514;9.988;2024-02-26T05:17:46;7.00;99.90
14140;DHT22;7150;53.514;9.988;2024-02-26T05:20:11;7.00;99.90
14140;DHT22;7150;53.514;9.988;2024-02-26T05:22:37;6.90;99.90
14140;DHT22;7150;53.514;9.988;2024-02-26T05:25:03;6.90;99.90
14140;DHT22;7150;53.514;9.988;2024-02-26T05:27:29;6.90;99.90
14140;DHT22;7150;53.514;9.988;2024-02-26T05:29:54;7.00;99.90
14140;DHT22;7150;53.514;9.988;2024-02-26T05:32:20;7.00;99.90
14140;DHT22;7150;53.514;9.988;2024-02-26T05:34:45;7.00;99.90
14140;DHT22;7150;53.514;9.988;2024-02-26T05:37:10;7.10;99.90
14140;DHT22;7150;53.514;9.988;2024-02-26T05:39:36;7.00;99.90
14140;DHT22;7150;53.514;9.988;2024-02-26T05:42:02;7.10;99.90
14140;DHT22;7150;53.514;9.988;2024-02-26T05:44:28;7.10;99.90
14140;DHT22;7150;53.514;9.988;2024-02-26T05:46:54;7.10;99.90
14140;DHT22;7150;53.514;9.988;2024-02-26T05:49:19;7.10;99.90
14140;DHT22;7150;53.514;9.988;2024-02-26T05:51:45;7.10;99.90
14140;DHT22;7150;53.514;9.988;2024-02-26T05:54:10;7.20;99.90
14140;DHT22;7150;53.514;9.988;2024-02-26T05:56:36;7.20;99.90
14140;DHT22;7150;53.514;9.988;2024-02-26T05:59:02;7.20;99.90
14140;DHT22;7150;53.514;9.988;2024-02-26T06:01:28;7.20;99.90
14140;DHT22;7150;53.514;9.988;2024-02-26T06:03:53;7.20;99.90
14140;DHT22;7150;53.514;9.988;2024-02-26T06:06:19;7.20;99.90
14140;DHT22;7150;53.514;9.988;2024-02-26T06:08:44;7.20;99.90
14140;DHT22;7150;53.514;9.988;2024-02-26T06:11:10;7.20;99.90
14140;DHT22;7150;53.514;9.988;2024-02-26T06:13:35;7.20;99.90
14140;DHT22;7150;53.514;9.988;2024-02-26T06:16:01;7.20;99.90
14140;DHT22;7150;53.514;9.988;2024-02-26T06:18:27;7.20;99.90
14140;DHT22;7150;53.514;9.988;2024-02-26T06:20:53;7.20;99.90
14140;DHT22;7150;53.514;9.988;2024-02-26T06:23:18;7.30;99.90
14140;DHT22;7150;53.514;9.988;2024-02-26T06:25:44;7.20;99.90
14140;DHT22;7150;53.514;9.988;2024-02-26T06:28:09;7.30;99.90
14140;DHT22;7150;53.514;9.988;2024-02-26T06:30:35;7.20;99.90
14140;DHT22;7150;53.514;9.988;2024-02-26T06:33:01;7.30;99.90
14140;DHT22;7150;53.514;9.988;2024-02-26T06:35:27;7.30;99.90
14140;DHT22;7150;53.514;9.988;2024-02-26T06:37:52;7.30;99.90
14140;DHT22;7150;53.514;9.988;2024-02-26T06:40:19;7.30;99.90
14140;DHT22;7150;53.514;9.988;2024-02-26T06:42:44;7.30;99.90
14140;DHT22;7150;53.514;9.988;2024-02-26T06:45:10;7.30;99.90
14140;DHT22;7150;53.514;9.988;2024-02-26T06:47:36;7.30;99.90
14140;DHT22;7150;53.514;9.988;2024-02-26T06:50:01;7.30;99.90
14140;DHT22;7150;53.514;9.988;2024-02-26T06:52:27;7.30;99.90
14140;DHT22;7150;53.514;9.988;2024-02-26T06:54:52;7.40;99.90
14140;DHT22;7150;53.514;9.988;2024-02-26T06:57:21;7.40;99.90
14140;DHT22;7150;53.514;9.988;2024-02-26T06:59:46;7.40;99.90
14140;DHT22;7150;53.514;9.988;2024-02-26T07:02:15;7.40;99.90
14140;DHT22;7150;53.514;9.988;2024-02-26T07:04:44;7.40;99.90
14140;DHT22;7150;53.514;9.988;2024-02-26T07:07:10;7.50;99.90
14140;DHT22;7150;53.514;9.988;2024-02-26T07:09:36;7.50;99.90
14140;DHT22;7150;53.514;9.988;2024-02-26T07:12:01;7.50;99.90
14140;DHT22;7150;53.514;9.988;2024-02-26T07:14:27;7.50;99.90
14140;DHT22;7150;53.514;9.988;2024-02-26T07:16:53;7.50;99.90
14140;DHT22;7150;53.514;9.988;2024-02-26T07:19:18;7.50;99.90
14140;DHT22;7150;53.514;9.988;2024-02-26T07:21:44;7.60;99.90
14140;DHT22;7150;53.514;9.988;2024-02-26T07:24:09;7.60;99.90
14140;DHT22;7150;53.514;9.988;2024-02-26T07:26:35;7.60;99.90
14140;DHT22;7150;53.514;9.988;2024-02-26T07:29:00;7.60;99.90
14140;DHT22;7150;53.514;9.988;2024-02-26T07:31:26;7.60;99.90
14140;DHT22;7150;53.514;9.988;2024-02-26T07:33:52;7.70;99.90
14140;DHT22;7150;53.514;9.988;2024-02-26T07:36:17;7.70;99.90
14140;DHT22;7150;53.514;9.988;2024-02-26T07:38:43;7.70;99.90
14140;DHT22;7150;53.514;9.988;2024-02-26T07:41:08;7.70;99.90
14140;DHT22;7150;53.514;9.988;2024-02-26T07:43:34;7.70;99.90
14140;DHT22;7150;53.514;9.988;2024-02-26T07:45:59;7.70;99.90
14140;DHT22;7150;53.514;9.988;2024-02-26T07:48:25;7.70;99.90
14140;DHT22;7150;53.514;9.988;2024-02-26T07:50:51;7.70;99.90
14140;DHT22;7150;53.514;9.988;2024-02-26T07:53:16;7.70;99.90
14140;DHT22;7150;53.514;9.988;2024-02-26T07:55:42;7.60;99.90
14140;DHT22;7150;53.514;9.988;2024-02-26T07:58:07;7.70;99.90
14140;DHT22;7150;53.514;9.988;2024-02-26T08:00:33;7.80;99.90
14140;DHT22;7150;53.514;9.988;2024-02-26T08:02:58;7.70;99.90
14140;DHT22;7150;53.514;9.988;2024-02-26T08:05:24;7.80;99.90
14140;DHT22;7150;53.514;9.988;2024-02-26T08:07:50;7.80;99.90
14140;DHT22;7150;53.514;9.988;2024-02-26T08:10:16;7.90;99.90
14140;DHT22;7150;53.514;9.988;2024-02-26T08:12:41;7.90;99.90
14140;DHT22;7150;53.514;9.988;2024-02-26T08:15:08;7.90;99.90
14140;DHT22;7150;53.514;9.988;2024-02-26T08:17:33;8.00;99.90
14140;DHT22;7150;53.514;9.988;2024-02-26T08:19:59;8.00;99.90
14140;DHT22;7150;53.514;9.988;2024-02-26T08:22:25;8.00;99.90
14140;DHT22;7150;53.514;9.988;2024-02-26T08:24:50;8.00;99.90
14140;DHT22;7150;53.514;9.988;2024-02-26T08:27:16;8.00;99.90
14140;DHT22;7150;53.514;9.988;2024-02-26T08:29:41;8.00;99.90
14140;DHT22;7150;53.514;9.988;2024-02-26T08:32:07;8.00;99.90
14140;DHT22;7150;53.514;9.988;2024-02-26T08:34:33;8.00;99.90
14140;DHT22;7150;53.514;9.988;2024-02-26T08:36:58;8.00;99.90
14140;DHT22;7150;53.514;9.988;2024-02-26T08:39:23;8.00;99.90
14140;DHT22;7150;53.514;9.988;2024-02-26T08:41:51;8.10;99.90
14140;DHT22;7150;53.514;9.988;2024-02-26T08:44:16;8.10;99.90
14140;DHT22;7150;53.514;9.988;2024-02-26T08:46:42;8.10;99.90
14140;DHT22;7150;53.514;9.988;2024-02-26T08:49:07;8.20;99.90
14140;DHT22;7150;53.514;9.988;2024-02-26T08:51:33;8.20;99.90
14140;DHT22;7150;53.514;9.988;2024-02-26T08:53:58;8.20;99.90
14140;DHT22;7150;53.514;9.988;2024-02-26T08:56:24;8.20;99.90
14140;DHT22;7150;53.514;9.988;2024-02-26T08:58:49;8.20;99.90
14140;DHT22;7150;53.514;9.988;2024-02-26T09:01:18;8.20;99.90
14140;DHT22;7150;53.514;9.988;2024-02-26T09:03:44;8.30;99.90
14140;DHT22;7150;53.514;9.988;2024-02-26T09:06:09;8.30;99.90
14140;DHT22;7150;53.514;9.988;2024-02-26T09:08:37;8.30;99.90
14140;DHT22;7150;53.514;9.988;2024-02-26T09:11:03;8.40;99.90
14140;DHT22;7150;53.514;9.988;2024-02-26T09:13:28;8.40;99.90
14140;DHT22;7150;53.514;9.988;2024-02-26T09:15:54;8.40;99.90
14140;DHT22;7150;53.514;9.988;2024-02-26T09:18:20;8.40;99.90
14140;DHT22;7150;53.514;9.988;2024-02-26T09:20:45;8.50;99.90
14140;DHT22;7150;53.514;9.988;2024-02-26T09:23:11;8.50;99.90
14140;DHT22;7150;53.514;9.988;2024-02-26T09:25:36;8.50;99.90
14140;DHT22;7150;53.514;9.988;2024-02-26T09:28:02;8.50;99.90
14140;DHT22;7150;53.514;9.988;2024-02-26T09:30:28;8.60;99.90
14140;DHT22;7150;53.514;9.988;2024-02-26T09:32:54;8.60;99.90
14140;DHT22;7150;53.514;9.988;2024-02-26T09:35:19;8.70;99.90
14140;DHT22;7150;53.514;9.988;2024-02-26T09:37:46;8.70;99.90
14140;DHT22;7150;53.514;9.988;2024-02-26T09:40:12;8.80;99.90
14140;DHT22;7150;53.514;9.988;2024-02-26T09:42:43;8.80;99.90
14140;DHT22;7150;53.514;9.988;2024-02-26T09:45:11;8.80;99.90
14140;DHT22;7150;53.514;9.988;2024-02-26T09:47:38;8.80;99.90
14140;DHT22;7150;53.514;9.988;2024-02-26T09:50:06;8.90;99.90
14140;DHT22;7150;53.514;9.988;2024-02-26T09:52:34;8.80;99.90
14140;DHT22;7150;53.514;9.988;2024-02-26T09:55:04;8.80;99.90
14140;DHT22;7150;53.514;9.988;2024-02-26T09:57:30;8.80;99.90
14140;DHT22;7150;53.514;9.988;2024-02-26T09:59:59;8.80;99.90
14140;DHT22;7150;53.514;9.988;2024-02-26T10:02:27;8.70;99.90
14140;DHT22;7150;53.514;9.988;2024-02-26T10:04:54;8.80;99.90
14140;DHT22;7150;53.514;9.988;2024-02-26T10:07:21;8.80;99.90
14140;DHT22;7150;53.514;9.988;2024-02-26T10:09:47;8.80;99.90
14140;DHT22;7150;53.514;9.988;2024-02-26T10:12:14;8.90;99.90
14140;DHT22;7150;53.514;9.988;2024-02-26T10:14:41;8.90;99.90
14140;DHT22;7150;53.514;9.988;2024-02-26T10:17:07;8.90;99.90
14140;DHT22;7150;53.514;9.988;2024-02-26T10:19:33;9.00;99.90
14140;DHT22;7150;53.514;9.988;2024-02-26T10:22:00;9.00;99.90
14140;DHT22;7150;53.514;9.988;2024-02-26T10:24:27;9.00;99.90
14140;DHT22;7150;53.514;9.988;2024-02-26T10:26:56;9.10;99.90
14140;DHT22;7150;53.514;9.988;2024-02-26T10:29:24;9.10;99.90
14140;DHT22;7150;53.514;9.988;2024-02-26T10:31:53;9.20;99.90
14140;DHT22;7150;53.514;9.988;2024-02-26T10:34:19;9.20;99.90
14140;DHT22;7150;53.514;9.988;2024-02-26T10:36:45;9.20;99.90
14140;DHT22;7150;53.514;9.988;2024-02-26T10:39:14;9.30;99.90
14140;DHT22;7150;53.514;9.988;2024-02-26T10:41:41;9.30;99.90
14140;DHT22;7150;53.514;9.988;2024-02-26T10:44:09;9.30;99.90
14140;DHT22;7150;53.514;9.988;2024-02-26T10:46:36;9.40;99.90
14140;DHT22;7150;53.514;9.988;2024-02-26T10:49:02;9.50;99.90
14140;DHT22;7150;53.514;9.988;2024-02-26T10:51:30;9.50;99.90
14140;DHT22;7150;53.514;9.988;2024-02-26T10:53:57;9.50;99.90
14140;DHT22;7150;53.514;9.988;2024-02-26T10:56:28;9.50;99.90
14140;DHT22;7150;53.514;9.988;2024-02-26T10:58:58;9.50;99.90
14140;DHT22;7150;53.514;9.988;2024-02-26T11:01:24;9.50;99.90
14140;DHT22;7150;53.514;9.988;2024-02-26T11:03:51;9.50;99.90
14140;DHT22;7150;53.514;9.988;2024-02-26T11:06:21;9.60;99.90
14140;DHT22;7150;53.514;9.988;2024-02-26T11:08:50;9.60;99.90
14140;DHT22;7150;53.514;9.988;2024-02-26T11:11:17;9.60;99.90
14140;DHT22;7150;53.514;9.988;2024-02-26T11:13:45;9.60;99.90
14140;DHT22;7150;53.514;9.988;2024-02-26T11:16:13;9.70;99.90
14140;DHT22;7150;53.514;9.988;2024-02-26T11:18:40;9.70;99.90
14140;DHT22;7150;53.514;9.988;2024-02-26T11:21:07;9.70;99.90
14140;DHT22;7150;53.514;9.988;2024-02-26T11:23:34;9.70;99.90
14140;DHT22;7150;53.514;9.988;2024-02-26T11:26:03;9.70;99.90
14140;DHT22;7150;53.514;9.988;2024-02-26T11:28:31;9.70;99.90
14140;DHT22;7150;53.514;9.988;2024-02-26T11:30:59;9.70;99.90
14140;DHT22;7150;53.514;9.988;2024-02-26T11:33:25;9.70;99.90
14140;DHT22;7150;53.514;9.988;2024-02-26T11:35:51;9.70;99.90
14140;DHT22;7150;53.514;9.988;2024-02-26T11:38:20;9.80;99.90
14140;DHT22;7150;53.514;9.988;2024-02-26T11:40:50;9.80;99.90
14140;DHT22;7150;53.514;9.988;2024-02-26T11:43:15;9.80;99.90
14140;DHT22;7150;53.514;9.988;2024-02-26T11:48:24;10.00;99.90
14140;DHT22;7150;53.514;9.988;2024-02-26T11:50:55;9.80;99.90
14140;DHT22;7150;53.514;9.988;2024-02-26T11:58:45;9.90;99.90
14140;DHT22;7150;53.514;9.988;2024-02-26T12:04:01;10.00;99.90
14140;DHT22;7150;53.514;9.988;2024-02-26T12:06:27;10.00;99.90
14140;DHT22;7150;53.514;9.988;2024-02-26T12:08:54;10.00;99.90
14140;DHT22;7150;53.514;9.988;2024-02-26T12:11:20;10.00;99.90
14140;DHT22;7150;53.514;9.988;2024-02-26T12:13:47;10.10;99.90
14140;DHT22;7150;53.514;9.988;2024-02-26T12:16:38;10.10;99.90
14140;DHT22;7150;53.514;9.988;2024-02-26T12:19:05;10.20;99.90
14140;DHT22;7150;53.514;9.988;2024-02-26T12:21:35;10.20;99.90
14140;DHT22;7150;53.514;9.988;2024-02-26T12:24:14;10.20;99.90
14140;DHT22;7150;53.514;9.988;2024-02-26T12:26:41;10.30;99.90
14140;DHT22;7150;53.514;9.988;2024-02-26T12:29:07;10.30;99.90
14140;DHT22;7150;53.514;9.988;2024-02-26T12:31:33;10.30;99.90
14140;DHT22;7150;53.514;9.988;2024-02-26T12:34:00;10.30;99.90
14140;DHT22;7150;53.514;9.988;2024-02-26T12:36:26;10.40;99.90
14140;DHT22;7150;53.514;9.988;2024-02-26T12:38:52;10.40;99.90
14140;DHT22;7150;53.514;9.988;2024-02-26T12:41:17;10.50;99.90
14140;DHT22;7150;53.514;9.988;2024-02-26T12:43:43;10.40;99.90
14140;DHT22;7150;53.514;9.988;2024-02-26T12:46:08;10.50;99.90
14140;DHT22;7150;53.514;9.988;2024-02-26T12:48:35;10.50;99.90
14140;DHT22;7150;53.514;9.988;2024-02-26T12:51:00;10.50;99.90
14140;DHT22;7150;53.514;9.988;2024-02-26T12:53:26;10.50;99.90
14140;DHT22;7150;53.514;9.988;2024-02-26T12:55:54;10.60;99.90
14140;DHT22;7150;53.514;9.988;2024-02-26T12:58:20;10.50;99.90
14140;DHT22;7150;53.514;9.988;2024-02-26T13:00:53;10.70;99.90
14140;DHT22;7150;53.514;9.988;2024-02-26T13:03:18;10.60;99.90
14140;DHT22;7150;53.514;9.988;2024-02-26T13:05:45;10.60;99.90
14140;DHT22;7150;53.514;9.988;2024-02-26T13:08:18;10.60;99.90
14140;DHT22;7150;53.514;9.988;2024-02-26T13:10:45;10.70;99.90
14140;DHT22;7150;53.514;9.988;2024-02-26T13:13:11;10.80;99.90
14140;DHT22;7150;53.514;9.988;2024-02-26T13:15:39;10.70;99.90
14140;DHT22;7150;53.514;9.988;2024-02-26T13:18:12;10.70;99.90
14140;DHT22;7150;53.514;9.988;2024-02-26T13:20:38;10.70;99.90
14140;DHT22;7150;53.514;9.988;2024-02-26T13:23:08;10.60;99.90
14140;DHT22;7150;53.514;9.988;2024-02-26T13:25:35;10.60;99.90
14140;DHT22;7150;53.514;9.988;2024-02-26T13:28:16;10.60;99.90
14140;DHT22;7150;53.514;9.988;2024-02-26T13:30:53;10.60;99.90
14140;DHT22;7150;53.514;9.988;2024-02-26T13:33:19;10.60;99.90
14140;DHT22;7150;53.514;9.988;2024-02-26T13:35:44;10.60;99.90
14140;DHT22;7150;53.514;9.988;2024-02-26T13:38:10;10.60;99.90
14140;DHT22;7150;53.514;9.988;2024-02-26T13:40:36;10.60;99.90
14140;DHT22;7150;53.514;9.988;2024-02-26T13:43:02;10.70;99.90
14140;DHT22;7150;53.514;9.988;2024-02-26T13:45:28;10.70;99.90
14140;DHT22;7150;53.514;9.988;2024-02-26T13:47:53;10.70;99.90
14140;DHT22;7150;53.514;9.988;2024-02-26T13:50:19;10.70;99.90
14140;DHT22;7150;53.514;9.988;2024-02-26T13:52:47;10.70;99.90
14140;DHT22;7150;53.514;9.988;2024-02-26T13:55:13;10.70;99.90
14140;DHT22;7150;53.514;9.988;2024-02-26T13:57:40;10.70;99.90
14140;DHT22;7150;53.514;9.988;2024-02-26T14:00:07;10.70;99.90
14140;DHT22;7150;53.514;9.988;2024-02-26T14:02:33;10.60;99.90
14140;DHT22;7150;53.514;9.988;2024-02-26T14:05:02;10.60;99.90
14140;DHT22;7150;53.514;9.988;2024-02-26T14:07:29;10.60;99.90
14140;DHT22;7150;53.514;9.988;2024-02-26T14:09:57;10.60;99.90
14140;DHT22;7150;53.514;9.988;2024-02-26T14:12:23;10.60;99.90
14140;DHT22;7150;53.514;9.988;2024-02-26T14:14:48;10.60;99.90
14140;DHT22;7150;53.514;9.988;2024-02-26T14:17:14;10.60;99.90
14140;DHT22;7150;53.514;9.988;2024-02-26T14:19:41;10.50;99.90
14140;DHT22;7150;53.514;9.988;2024-02-26T14:22:11;10.50;99.90
14140;DHT22;7150;53.514;9.988;2024-02-26T14:24:36;10.60;99.90
14140;DHT22;7150;53.514;9.988;2024-02-26T14:27:02;10.60;99.90
14140;DHT22;7150;53.514;9.988;2024-02-26T14:29:28;10.60;99.90
14140;DHT22;7150;53.514;9.988;2024-02-26T14:31:53;10.60;99.90
14140;DHT22;7150;53.514;9.988;2024-02-26T14:34:19;10.60;99.90
14140;DHT22;7150;53.514;9.988;2024-02-26T14:36:44;10.60;99.90
14140;DHT22;7150;53.514;9.988;2024-02-26T14:39:10;10.60;99.90
14140;DHT22;7150;53.514;9.988;2024-02-26T14:41:39;10.60;99.90
14140;DHT22;7150;53.514;9.988;2024-02-26T14:44:04;10.70;99.90
14140;DHT22;7150;53.514;9.988;2024-02-26T14:46:30;10.70;99.90
14140;DHT22;7150;53.514;9.988;2024-02-26T14:48:56;10.60;99.90
14140;DHT22;7150;53.514;9.988;2024-02-26T14:51:24;10.60;99.90
14140;DHT22;7150;53.514;9.988;2024-02-26T14:53:50;10.50;99.90
14140;DHT22;7150;53.514;9.988;2024-02-26T14:56:16;10.50;99.90
14140;DHT22;7150;53.514;9.988;2024-02-26T14:58:41;10.60;99.90
14140;DHT22;7150;53.514;9.988;2024-02-26T15:01:07;10.50;99.90
14140;DHT22;7150;53.514;9.988;2024-02-26T15:03:33;10.50;99.90
14140;DHT22;7150;53.514;9.988;2024-02-26T15:05:58;10.60;99.90
14140;DHT22;7150;53.514;9.988;2024-02-26T15:08:24;10.60;99.90
14140;DHT22;7150;53.514;9.988;2024-02-26T15:10:49;10.60;99.90
14140;DHT22;7150;53.514;9.988;2024-02-26T15:13:15;10.70;99.90
14140;DHT22;7150;53.514;9.988;2024-02-26T15:15:41;10.60;99.90
14140;DHT22;7150;53.514;9.988;2024-02-26T15:18:07;10.60;99.90
14140;DHT22;7150;53.514;9.988;2024-02-26T15:20:33;10.60;99.90
14140;DHT22;7150;53.514;9.988;2024-02-26T15:22:59;10.60;99.90
14140;DHT22;7150;53.514;9.988;2024-02-26T15:25:24;10.50;99.90
14140;DHT22;7150;53.514;9.988;2024-02-26T15:27:50;10.50;99.90
14140;DHT22;7150;53.514;9.988;2024-02-26T15:30:15;10.50;99.90
14140;DHT22;7150;53.514;9.988;2024-02-26T15:32:41;10.40;99.90
14140;DHT22;7150;53.514;9.988;2024-02-26T15:35:09;10.40;99.90
14140;DHT22;7150;53.514;9.988;2024-02-26T15:37:35;10.30;99.90
14140;DHT22;7150;53.514;9.988;2024-02-26T15:40:00;10.30;99.90
14140;DHT22;7150;53.514;9.988;2024-02-26T15:42:26;10.30;99.90
14140;DHT22;7150;53.514;9.988;2024-02-26T15:44:51;10.20;99.90
14140;DHT22;7150;53.514;9.988;2024-02-26T15:47:17;10.20;99.90
14140;DHT22;7150;53.514;9.988;2024-02-26T15:49:43;10.20;99.90
14140;DHT22;7150;53.514;9.988;2024-02-26T15:52:08;10.20;99.90
14140;DHT22;7150;53.514;9.988;2024-02-26T15:54:38;10.20;99.90
14140;DHT22;7150;53.514;9.988;2024-02-26T15:57:04;10.20;99.90
14140;DHT22;7150;53.514;9.988;2024-02-26T15:59:30;10.20;99.90
14140;DHT22;7150;53.514;9.988;2024-02-26T16:01:55;10.20;99.90